createdAt,value
2022-07-28T00:01:57.542Z,15.91
2022-07-28T00:05:13.463Z,15.87
2022-07-28T00:08:23.337Z,15.87
2022-07-28T00:11:28.963Z,15.84
2022-07-28T00:14:34.750Z,15.71
2022-07-28T00:17:44.586Z,15.68
2022-07-28T00:20:52.768Z,15.73
2022-07-28T00:24:04.215Z,15.61
2022-07-28T00:27:14.035Z,15.65
2022-07-28T00:30:23.101Z,15.67
2022-07-28T00:33:28.756Z,15.68
2022-07-28T00:36:37.216Z,15.61
2022-07-28T00:39:44.393Z,15.62
2022-07-28T00:42:50.024Z,15.64
2022-07-28T00:45:58.014Z,15.61
2022-07-28T00:49:24.977Z,15.65
2022-07-28T00:52:34.458Z,15.58
2022-07-28T00:56:03.678Z,15.54
2022-07-28T00:59:08.951Z,15.47
2022-07-28T01:02:14.809Z,15.56
2022-07-28T01:05:43.874Z,15.60
2022-07-28T01:09:05.891Z,15.59
2022-07-28T01:12:28.743Z,15.52
2022-07-28T01:15:51.947Z,15.57
2022-07-28T01:19:12.643Z,15.52
2022-07-28T01:22:26.685Z,15.53
2022-07-28T01:25:50.953Z,15.54
2022-07-28T01:29:20.556Z,15.54
2022-07-28T01:32:35.503Z,15.50
2022-07-28T01:35:50.752Z,15.50
2022-07-28T01:38:58.014Z,15.51
2022-07-28T01:42:09.731Z,15.48
2022-07-28T01:45:19.682Z,15.39
2022-07-28T01:48:38.692Z,15.38
2022-07-28T01:51:47.510Z,15.31
2022-07-28T01:54:56.109Z,15.28
2022-07-28T01:58:06.685Z,15.35
2022-07-28T02:01:17.805Z,15.27
2022-07-28T02:04:39.208Z,15.27
2022-07-28T02:07:49.400Z,15.24
2022-07-28T02:11:20.921Z,15.16
2022-07-28T02:14:30.536Z,15.14
2022-07-28T02:17:45.188Z,15.11
2022-07-28T02:20:54.432Z,15.02
2022-07-28T02:24:03.328Z,14.97
2022-07-28T02:27:22.517Z,14.87
2022-07-28T02:30:38.791Z,14.99
2022-07-28T02:33:59.641Z,15.05
2022-07-28T02:37:39.159Z,15.04
2022-07-28T02:40:49.470Z,14.99
2022-07-28T02:44:17.456Z,14.96
2022-07-28T02:47:37.671Z,15.00
2022-07-28T02:50:50.224Z,14.97
2022-07-28T02:54:01.288Z,14.92
2022-07-28T02:57:10.848Z,14.90
2022-07-28T03:00:18.569Z,14.92
2022-07-28T03:03:27.481Z,14.83
2022-07-28T03:06:33.331Z,14.79
2022-07-28T03:09:46.702Z,14.82
2022-07-28T03:12:52.658Z,14.80
2022-07-28T03:15:58.220Z,14.76
2022-07-28T03:19:03.873Z,14.80
2022-07-28T03:22:11.917Z,14.84
2022-07-28T03:25:29.514Z,14.82
2022-07-28T03:28:39.628Z,14.88
2022-07-28T03:31:50.142Z,14.86
2022-07-28T03:34:56.952Z,14.95
2022-07-28T03:38:14.360Z,14.97
2022-07-28T03:41:29.904Z,14.88
2022-07-28T03:44:38.555Z,14.80
2022-07-28T03:47:53.988Z,14.84
2022-07-28T03:51:02.106Z,14.85
2022-07-28T03:54:08.053Z,14.71
2022-07-28T03:57:16.284Z,14.84
2022-07-28T04:00:23.535Z,14.98
2022-07-28T04:03:43.037Z,14.96
2022-07-28T04:06:50.074Z,14.94
2022-07-28T04:09:55.818Z,14.66
2022-07-28T04:13:04.140Z,14.56
2022-07-28T04:16:10.237Z,14.46
2022-07-28T04:19:16.461Z,14.54
2022-07-28T04:22:22.837Z,14.57
2022-07-28T04:25:30.853Z,14.75
2022-07-28T04:28:39.070Z,14.64
2022-07-28T04:31:44.927Z,14.64
2022-07-28T04:34:50.714Z,14.64
2022-07-28T04:37:58.843Z,14.56
2022-07-28T04:41:04.389Z,14.57
2022-07-28T04:44:13.858Z,14.71
2022-07-28T04:47:19.796Z,14.84
2022-07-28T04:50:25.531Z,15.04
2022-07-28T04:53:36.278Z,15.15
2022-07-28T04:56:42.400Z,15.32
2022-07-28T04:59:54.131Z,15.28
2022-07-28T05:03:02.864Z,15.33
2022-07-28T05:06:08.796Z,15.42
2022-07-28T05:09:14.412Z,15.55
2022-07-28T05:12:19.990Z,15.73
2022-07-28T05:15:28.461Z,16.28
2022-07-28T05:18:34.098Z,16.85
2022-07-28T05:21:40.032Z,17.68
2022-07-28T05:24:45.837Z,18.03
2022-07-28T05:27:53.429Z,18.78
2022-07-28T05:31:01.636Z,18.80
2022-07-28T05:34:07.259Z,19.14
2022-07-28T05:37:12.889Z,19.41
2022-07-28T05:40:22.035Z,19.50
2022-07-28T05:43:28.305Z,20.38
2022-07-28T05:46:36.513Z,20.34
2022-07-28T05:49:42.135Z,20.70
2022-07-28T05:52:48.753Z,21.28
2022-07-28T05:56:00.237Z,21.63
2022-07-28T05:59:10.332Z,21.82
2022-07-28T06:02:18.663Z,22.40
2022-07-28T06:05:26.538Z,22.36
2022-07-28T06:08:32.230Z,22.18
2022-07-28T06:11:38.463Z,22.46
2022-07-28T06:14:44.291Z,22.44
2022-07-28T06:17:55.613Z,22.30
2022-07-28T06:21:04.448Z,22.02
2022-07-28T06:24:11.078Z,22.34
2022-07-28T06:27:16.932Z,22.12
2022-07-28T06:30:24.283Z,23.04
2022-07-28T06:33:32.367Z,22.73
2022-07-28T06:36:38.986Z,23.00
2022-07-28T06:39:48.421Z,23.04
2022-07-28T06:42:55.236Z,23.90
2022-07-28T06:46:00.777Z,24.00
2022-07-28T06:49:23.289Z,23.33
2022-07-28T06:52:29.847Z,23.30
2022-07-28T06:55:36.429Z,23.79
2022-07-28T06:58:42.333Z,23.68
2022-07-28T07:01:52.154Z,23.79
2022-07-28T07:05:00.392Z,23.56
2022-07-28T07:08:06.046Z,22.90
2022-07-28T07:11:11.731Z,23.03
2022-07-28T07:14:19.836Z,23.85
2022-07-28T07:17:25.417Z,23.38
2022-07-28T07:20:33.709Z,23.27
2022-07-28T07:23:39.403Z,23.90
2022-07-28T07:26:45.750Z,23.78
2022-07-28T07:29:51.365Z,23.70
2022-07-28T07:32:56.902Z,22.95
2022-07-28T07:36:05.329Z,23.02
2022-07-28T07:39:11.733Z,23.30
2022-07-28T07:42:19.649Z,23.49
2022-07-28T07:45:31.235Z,23.30
2022-07-28T07:48:38.873Z,23.97
2022-07-28T07:51:47.615Z,24.21
2022-07-28T07:54:55.293Z,24.08
2022-07-28T07:58:01.126Z,24.69
2022-07-28T08:01:15.784Z,24.55
2022-07-28T08:04:25.185Z,24.78
2022-07-28T08:07:37.880Z,25.01
2022-07-28T08:10:43.760Z,24.87
2022-07-28T08:13:54.591Z,24.51
2022-07-28T08:17:00.593Z,25.38
2022-07-28T08:20:12.747Z,24.74
2022-07-28T08:23:30.715Z,25.02
2022-07-28T08:26:36.478Z,24.07
2022-07-28T08:29:42.243Z,24.58
2022-07-28T08:32:56.843Z,24.48
2022-07-28T08:36:03.276Z,24.46
2022-07-28T08:39:11.627Z,24.88
2022-07-28T08:42:31.650Z,25.27
2022-07-28T08:45:40.816Z,24.68
2022-07-28T08:48:50.266Z,25.23
2022-07-28T08:52:02.563Z,25.46
2022-07-28T08:55:19.147Z,26.14
2022-07-28T08:58:26.015Z,26.52
2022-07-28T09:01:39.043Z,25.85
2022-07-28T09:04:46.526Z,26.19
2022-07-28T09:07:55.915Z,25.48
2022-07-28T09:11:06.428Z,26.30
2022-07-28T09:14:15.677Z,25.94
2022-07-28T09:17:27.029Z,26.56
2022-07-28T09:20:34.757Z,25.40
2022-07-28T09:23:48.831Z,26.27
2022-07-28T09:27:09.714Z,25.84
2022-07-28T09:30:16.215Z,26.05
2022-07-28T09:33:42.725Z,26.90
2022-07-28T09:36:50.833Z,27.05
2022-07-28T09:39:59.627Z,26.33
2022-07-28T09:43:13.475Z,25.20
2022-07-28T09:46:24.547Z,25.89
2022-07-28T09:49:45.363Z,26.33
2022-07-28T09:52:50.969Z,27.17
2022-07-28T09:56:00.571Z,27.33
2022-07-28T09:59:09.366Z,26.59
2022-07-28T10:02:16.325Z,26.43
2022-07-28T10:05:23.006Z,27.34
2022-07-28T10:08:53.427Z,26.79
2022-07-28T10:12:22.736Z,25.97
2022-07-28T10:15:54.707Z,26.24
2022-07-28T10:19:03.321Z,26.26
2022-07-28T10:22:11.678Z,26.96
2022-07-28T10:25:19.536Z,27.47
2022-07-28T10:28:27.334Z,26.95
2022-07-28T10:31:49.328Z,26.33
2022-07-28T10:35:06.944Z,26.01
2022-07-28T10:38:21.739Z,25.45
2022-07-28T10:41:43.489Z,25.27
2022-07-28T10:44:51.040Z,25.59
2022-07-28T10:48:04.318Z,25.88
2022-07-28T10:51:12.835Z,26.55
2022-07-28T10:54:30.528Z,26.88
2022-07-28T10:57:46.703Z,26.90
2022-07-28T11:01:26.705Z,25.88
2022-07-28T11:05:05.392Z,25.56
2022-07-28T11:08:29.622Z,24.73
2022-07-28T11:11:50.244Z,25.83
2022-07-28T11:14:55.902Z,26.02
2022-07-28T11:18:09.471Z,26.58
2022-07-28T11:21:20.557Z,26.74
2022-07-28T11:24:26.277Z,26.65
2022-07-28T11:28:16.405Z,26.80
2022-07-28T11:31:57.052Z,25.40
2022-07-28T11:35:12.837Z,25.74
2022-07-28T11:38:27.607Z,26.07
2022-07-28T11:41:34.827Z,26.27
2022-07-28T11:44:41.204Z,25.57
2022-07-28T11:47:48.180Z,26.18
2022-07-28T11:51:18.984Z,26.36
2022-07-28T11:54:28.451Z,25.68
2022-07-28T11:57:47.633Z,26.02
2022-07-28T12:01:19.401Z,26.63
2022-07-28T12:04:30.355Z,27.16
2022-07-28T12:07:43.868Z,27.20
2022-07-28T12:10:54.882Z,26.63
2022-07-28T12:14:04.170Z,26.04
2022-07-28T12:17:10.768Z,26.00
2022-07-28T12:20:22.134Z,26.49
2022-07-28T12:23:49.320Z,27.19
2022-07-28T12:26:59.746Z,26.79
2022-07-28T12:30:15.881Z,26.43
2022-07-28T12:33:29.886Z,26.39
2022-07-28T12:36:38.113Z,26.63
2022-07-28T12:39:46.361Z,26.64
2022-07-28T12:42:57.383Z,26.49
2022-07-28T12:46:08.993Z,26.10
2022-07-28T12:49:24.933Z,25.78
2022-07-28T12:52:30.578Z,25.80
2022-07-28T12:55:36.576Z,25.25
2022-07-28T12:58:44.872Z,24.44
2022-07-28T13:01:53.995Z,24.31
2022-07-28T13:04:59.631Z,24.71
2022-07-28T13:08:16.255Z,25.09
2022-07-28T13:11:46.154Z,24.95
2022-07-28T13:14:58.314Z,24.50
2022-07-28T13:18:05.234Z,24.70
2022-07-28T13:21:11.976Z,24.94
2022-07-28T13:24:20.067Z,24.81
2022-07-28T13:27:25.858Z,24.66
2022-07-28T13:30:33.963Z,24.68
2022-07-28T13:33:39.531Z,24.92
2022-07-28T13:36:50.596Z,24.74
2022-07-28T13:39:56.768Z,24.95
2022-07-28T13:43:11.463Z,24.77
2022-07-28T13:46:21.144Z,24.45
2022-07-28T13:49:27.668Z,24.25
2022-07-28T13:52:35.257Z,24.17
2022-07-28T13:55:43.002Z,24.00
2022-07-28T13:58:48.554Z,23.84
2022-07-28T14:02:01.236Z,23.49
2022-07-28T14:05:09.513Z,23.66
2022-07-28T14:08:19.575Z,23.73
2022-07-28T14:11:25.841Z,23.91
2022-07-28T14:14:36.610Z,23.57
2022-07-28T14:17:46.325Z,23.52
2022-07-28T14:20:53.186Z,23.95
2022-07-28T14:23:58.873Z,24.31
2022-07-28T14:27:08.639Z,24.42
2022-07-28T14:30:26.082Z,24.39
2022-07-28T14:33:34.230Z,23.99
2022-07-28T14:36:39.888Z,24.32
2022-07-28T14:39:53.370Z,24.19
2022-07-28T14:42:59.051Z,24.26
2022-07-28T14:46:16.252Z,24.34
2022-07-28T14:49:26.281Z,24.50
2022-07-28T14:52:33.014Z,24.34
2022-07-28T14:55:38.820Z,24.01
2022-07-28T14:58:45.103Z,23.39
2022-07-28T15:01:53.484Z,23.42
2022-07-28T15:05:01.786Z,23.46
2022-07-28T15:08:07.940Z,23.04
2022-07-28T15:11:13.517Z,22.82
2022-07-28T15:14:27.906Z,22.92
2022-07-28T15:17:36.008Z,23.09
2022-07-28T15:20:44.840Z,23.06
2022-07-28T15:23:50.748Z,23.15
2022-07-28T15:26:58.556Z,23.35
2022-07-28T15:30:04.232Z,23.30
2022-07-28T15:33:13.830Z,23.60
2022-07-28T15:36:27.403Z,23.67
2022-07-28T15:39:39.591Z,23.83
2022-07-28T15:42:48.383Z,23.81
2022-07-28T15:45:59.431Z,24.01
2022-07-28T15:49:09.570Z,23.99
2022-07-28T15:52:19.977Z,23.86
2022-07-28T15:55:25.737Z,23.98
2022-07-28T15:58:31.348Z,24.01
2022-07-28T16:01:39.820Z,23.86
2022-07-28T16:04:53.973Z,23.89
2022-07-28T16:08:02.583Z,23.94
2022-07-28T16:11:08.132Z,23.63
2022-07-28T16:14:13.912Z,23.77
2022-07-28T16:17:19.711Z,23.78
2022-07-28T16:20:25.906Z,23.77
2022-07-28T16:23:34.042Z,23.78
2022-07-28T16:26:39.588Z,23.78
2022-07-28T16:29:45.831Z,23.71
2022-07-28T16:32:59.124Z,23.81
2022-07-28T16:36:05.477Z,23.85
2022-07-28T16:39:15.562Z,23.76
2022-07-28T16:42:24.303Z,23.70
2022-07-28T16:45:30.961Z,23.70
2022-07-28T16:48:39.648Z,23.77
2022-07-28T16:51:47.417Z,23.67
2022-07-28T16:54:56.302Z,23.66
2022-07-28T16:58:01.999Z,23.56
2022-07-28T17:01:08.958Z,23.52
2022-07-28T17:04:15.169Z,23.48
2022-07-28T17:07:29.202Z,23.57
2022-07-28T17:10:42.598Z,23.49
2022-07-28T17:13:48.106Z,23.41
2022-07-28T17:16:53.673Z,23.42
2022-07-28T17:19:59.401Z,23.37
2022-07-28T17:23:08.906Z,23.44
2022-07-28T17:27:32.390Z,23.21
2022-07-28T17:29:48.319Z,22.87
2022-07-28T17:33:06.072Z,22.88
2022-07-28T17:36:13.793Z,22.73
2022-07-28T17:39:19.564Z,22.72
2022-07-28T17:42:31.440Z,22.60
2022-07-28T17:45:46.440Z,22.48
2022-07-28T17:48:52.228Z,22.45
2022-07-28T17:51:57.858Z,22.38
2022-07-28T17:55:16.672Z,22.31
2022-07-28T17:58:32.396Z,22.27
2022-07-28T18:01:43.588Z,22.09
2022-07-28T18:04:50.896Z,21.94
2022-07-28T18:07:59.308Z,21.89
2022-07-28T18:11:06.802Z,21.70
2022-07-28T18:14:15.649Z,21.66
2022-07-28T18:17:23.622Z,21.56
2022-07-28T18:20:29.504Z,21.36
2022-07-28T18:23:35.745Z,21.29
2022-07-28T18:26:41.466Z,21.21
2022-07-28T18:29:49.680Z,21.14
2022-07-28T18:32:56.232Z,21.00
2022-07-28T18:36:04.898Z,20.79
2022-07-28T18:41:58.192Z,20.60
2022-07-28T18:45:05.175Z,20.47
2022-07-28T18:48:11.646Z,20.36
2022-07-28T18:51:19.840Z,20.33
2022-07-28T18:54:27.640Z,20.24
2022-07-28T18:57:36.267Z,20.19
2022-07-28T19:00:42.425Z,20.05
2022-07-28T19:03:50.627Z,20.02
2022-07-28T19:06:59.924Z,20.05
2022-07-28T19:10:14.213Z,19.95
2022-07-28T19:13:28.283Z,19.91
2022-07-28T19:16:38.532Z,19.88
2022-07-28T19:19:44.327Z,19.86
2022-07-28T19:23:03.227Z,19.74
2022-07-28T19:26:10.856Z,19.66
2022-07-28T19:29:25.175Z,19.61
2022-07-28T19:32:30.737Z,19.39
2022-07-28T19:35:39.227Z,19.37
2022-07-28T19:38:46.079Z,19.38
2022-07-28T19:41:51.794Z,19.40
2022-07-28T19:45:09.751Z,19.30
2022-07-28T19:48:24.698Z,19.15
2022-07-28T19:51:30.846Z,18.96
2022-07-28T19:54:36.512Z,19.02
2022-07-28T19:57:45.427Z,19.10
2022-07-28T20:00:54.165Z,19.07
2022-07-28T20:04:05.304Z,18.91
2022-07-28T20:07:13.891Z,18.88
2022-07-28T20:10:19.526Z,18.88
2022-07-28T20:13:38.473Z,18.75
2022-07-28T20:16:46.844Z,18.63
2022-07-28T20:20:17.741Z,18.61
2022-07-28T20:23:30.046Z,18.52
2022-07-28T20:26:35.732Z,18.35
2022-07-28T20:29:45.058Z,18.36
2022-07-28T20:32:53.428Z,18.38
2022-07-28T20:36:01.876Z,18.38
2022-07-28T20:39:34.426Z,18.32
2022-07-28T20:42:40.580Z,18.30
2022-07-28T20:45:52.830Z,18.29
2022-07-28T20:49:01.384Z,18.12
2022-07-28T20:52:10.254Z,18.06
2022-07-28T20:58:35.168Z,18.05
2022-07-28T21:01:49.341Z,17.97
2022-07-28T21:05:01.227Z,17.93
2022-07-28T21:08:18.773Z,17.84
2022-07-28T21:11:24.335Z,17.72
2022-07-28T21:14:32.792Z,17.63
2022-07-28T21:17:38.604Z,17.54
2022-07-28T21:20:44.633Z,17.52
2022-07-28T21:23:52.269Z,17.43
2022-07-28T21:26:58.131Z,17.33
2022-07-28T21:30:10.974Z,17.25
2022-07-28T21:33:23.442Z,17.25
2022-07-28T21:36:32.319Z,17.16
2022-07-28T21:39:38.308Z,17.12
2022-07-28T21:42:43.968Z,17.15
2022-07-28T21:45:52.590Z,17.14
2022-07-28T21:49:10.183Z,17.11
2022-07-28T21:52:15.892Z,17.05
2022-07-28T21:55:21.622Z,17.04
2022-07-28T21:58:27.845Z,16.96
2022-07-28T22:01:36.118Z,16.78
2022-07-28T22:04:41.757Z,16.79
2022-07-28T22:07:48.478Z,16.79
2022-07-28T22:10:54.136Z,16.72
2022-07-28T22:13:59.753Z,16.63
2022-07-28T22:17:11.524Z,16.57
2022-07-28T22:20:17.543Z,16.51
2022-07-28T22:23:28.971Z,16.60
2022-07-28T22:26:38.025Z,16.62
2022-07-28T22:29:51.325Z,16.54
2022-07-28T22:33:00.057Z,16.54
2022-07-28T22:36:08.776Z,16.53
2022-07-28T22:39:18.723Z,16.52
2022-07-28T22:42:24.322Z,16.47
2022-07-28T22:45:50.028Z,16.49
2022-07-28T22:48:58.515Z,16.38
2022-07-28T22:52:04.373Z,16.28
2022-07-28T22:58:33.406Z,16.28
2022-07-28T23:01:40.067Z,16.32
2022-07-28T23:04:58.722Z,16.31
2022-07-28T23:08:04.414Z,16.17
2022-07-28T23:11:20.891Z,16.11
2022-07-28T23:14:28.645Z,16.10
2022-07-28T23:17:39.686Z,16.07
2022-07-28T23:20:49.005Z,16.07
2022-07-28T23:23:54.868Z,16.05
2022-07-28T23:27:00.570Z,16.02
2022-07-28T23:30:08.565Z,16.01
2022-07-28T23:33:55.854Z,15.88
2022-07-28T23:36:51.290Z,15.76
2022-07-28T23:40:05.176Z,15.73
2022-07-28T23:43:10.746Z,15.75
2022-07-28T23:46:16.370Z,15.67
2022-07-28T23:49:22.360Z,15.66
2022-07-28T23:52:30.609Z,15.73
2022-07-28T23:55:36.231Z,15.67
2022-07-28T23:58:43.942Z,15.60
